Time;durP1;ratioP1;P1;durP2;ratioP2;P2;SDS_P1;SDS_P2;PMS_P1;PMS_P2;Temp;Humidity;BMP_temperature;BMP_pressure;BME280_temperature;BME280_humidity;BME280_pressure;Samples;Min_cycle;Max_cycle;Signal;HPM_P1;HPM_P2
2022/01/08 00:01:57;;;;;;;1.73;1.63;;;;;;;2.44;86.41;95178.25;4356141;32;20181;-58
2022/01/08 00:04:22;;;;;;;2.70;1.60;;;;;;;2.66;86.09;95173.78;4357600;32;20184;-59
2022/01/08 00:06:48;;;;;;;1.70;1.60;;;;;;;2.59;84.73;95165.31;4340003;32;20274;-60
2022/01/08 00:09:13;;;;;;;1.73;1.47;;;;;;;2.51;84.55;95159.72;4363623;32;20244;-60
2022/01/08 00:11:42;;;;;;;1.33;1.23;;;;;;;2.57;84.41;95156.91;4355009;32;20177;-60
2022/01/08 00:14:09;;;;;;;1.60;1.50;;;;;;;2.42;84.57;95154.16;4360885;32;20199;-60
2022/01/08 00:16:35;;;;;;;1.70;1.60;;;;;;;2.35;84.46;95162.19;4351254;32;20324;-59
2022/01/08 00:19:00;;;;;;;1.43;1.33;;;;;;;2.40;84.99;95157.00;4365291;32;20294;-59
2022/01/08 00:21:26;;;;;;;1.60;1.50;;;;;;;2.36;84.30;95162.97;4376250;32;20239;-59
2022/01/08 00:23:51;;;;;;;1.60;1.50;;;;;;;2.40;84.28;95148.38;4355550;32;20177;-60
2022/01/08 00:26:16;;;;;;;1.60;1.50;;;;;;;2.49;84.48;95154.75;4361384;32;20222;-59
2022/01/08 00:28:42;;;;;;;1.10;1.10;;;;;;;2.46;84.18;95144.78;4358979;32;20181;-59
2022/01/08 00:31:10;;;;;;;1.60;1.50;;;;;;;2.45;83.91;95145.03;4372137;32;20256;-59
2022/01/08 00:33:39;;;;;;;1.47;1.30;;;;;;;2.50;84.06;95143.22;4365200;32;20264;-59
2022/01/08 00:36:05;;;;;;;1.60;1.50;;;;;;;2.32;84.61;95131.25;4355092;32;20343;-59
2022/01/08 00:38:30;;;;;;;1.73;1.63;;;;;;;2.27;85.05;95135.69;4352429;32;20270;-60
2022/01/08 00:40:56;;;;;;;1.50;1.40;;;;;;;2.26;85.07;95128.88;4364068;32;20189;-59
2022/01/08 00:43:21;;;;;;;1.77;1.67;;;;;;;2.33;84.74;95125.00;4354579;32;20199;-59
2022/01/08 00:45:47;;;;;;;1.63;1.60;;;;;;;2.25;84.74;95130.69;4359193;32;20200;-59
2022/01/08 00:48:12;;;;;;;1.67;1.57;;;;;;;2.41;84.95;95119.34;4351455;32;20245;-60
2022/01/08 00:50:37;;;;;;;1.63;1.53;;;;;;;2.43;84.15;95116.47;4343466;32;20180;-60
2022/01/08 00:53:03;;;;;;;1.60;1.50;;;;;;;2.39;84.13;95118.00;4363451;32;20239;-59
2022/01/08 00:55:28;;;;;;;1.60;1.50;;;;;;;2.52;83.65;95112.34;4360955;32;20185;-59
2022/01/08 00:57:53;;;;;;;2.50;2.00;;;;;;;2.39;83.96;95108.31;4374865;32;20200;-60
2022/01/08 01:00:19;;;;;;;1.90;1.80;;;;;;;2.37;84.27;95096.50;4373001;32;20184;-59
2022/01/08 01:02:45;;;;;;;1.50;1.40;;;;;;;2.44;84.17;95104.97;4349738;32;20232;-60
2022/01/08 01:05:11;;;;;;;1.57;1.50;;;;;;;2.32;83.83;95096.47;4340773;32;20193;-59
2022/01/08 01:07:37;;;;;;;1.60;1.50;;;;;;;2.36;84.13;95100.16;4360501;32;20181;-59
2022/01/08 01:10:04;;;;;;;1.53;1.43;;;;;;;2.34;84.02;95092.56;4337797;32;20185;-59
2022/01/08 01:12:29;;;;;;;1.50;1.40;;;;;;;2.45;83.78;95090.06;4351482;32;20341;-60
2022/01/08 01:14:54;;;;;;;1.27;1.17;;;;;;;2.52;83.55;95080.16;4356520;32;20268;-59
2022/01/08 01:17:20;;;;;;;1.50;1.40;;;;;;;2.54;83.19;95078.88;4351403;32;20180;-59
2022/01/08 01:19:47;;;;;;;2.23;1.60;;;;;;;2.62;82.98;95078.44;4362530;32;20193;-60
2022/01/08 01:22:16;;;;;;;1.67;1.57;;;;;;;2.74;82.42;95075.63;4357181;32;20224;-60
2022/01/08 01:24:41;;;;;;;1.30;1.30;;;;;;;2.53;82.47;95073.88;4350910;32;20344;-59
2022/01/08 01:27:42;;;;;;;1.60;1.50;;;;;;;2.53;82.95;95058.16;4352737;32;20296;-59
2022/01/08 01:30:11;;;;;;;2.10;2.00;;;;;;;2.65;82.97;95054.37;4354803;32;20199;-64
2022/01/08 01:41:16;;;;;;;1.87;1.77;;;;;;;2.84;81.33;95040.88;4368829;32;20398;-60
2022/01/08 01:49:04;;;;;;;2.13;1.97;;;;;;;2.49;82.67;95036.97;4365623;32;20283;-59
2022/01/08 01:51:30;;;;;;;2.20;2.00;;;;;;;2.44;82.84;95025.66;4366054;32;20312;-59
2022/01/08 01:53:55;;;;;;;2.30;2.20;;;;;;;2.42;82.97;95025.91;4367286;32;20277;-59
2022/01/08 01:56:21;;;;;;;1.97;1.87;;;;;;;2.12;83.41;95023.78;4364383;32;20181;-59
2022/01/08 01:58:47;;;;;;;2.10;2.00;;;;;;;2.12;83.88;95021.16;4358059;32;20189;-59
2022/01/08 02:01:13;;;;;;;1.60;1.50;;;;;;;2.12;83.67;95017.75;4351904;32;20281;-59
2022/01/08 02:03:39;;;;;;;1.83;1.73;;;;;;;1.95;84.12;95008.19;4364732;32;20188;-59
2022/01/08 02:06:06;;;;;;;1.83;1.73;;;;;;;1.86;85.03;95014.13;4347608;32;20303;-58
2022/01/08 02:08:32;;;;;;;1.53;1.43;;;;;;;2.04;84.17;94995.47;4356932;32;20326;-59
2022/01/08 02:10:57;;;;;;;1.83;1.73;;;;;;;2.04;83.85;95001.50;4342174;32;20272;-59
2022/01/08 02:13:24;;;;;;;1.83;1.57;;;;;;;1.93;83.86;94991.16;4368446;32;20182;-58
2022/01/08 02:15:52;;;;;;;1.53;1.53;;;;;;;1.92;84.16;94986.97;4344851;32;20188;-59
2022/01/08 02:18:21;;;;;;;1.70;1.60;;;;;;;1.96;84.07;94988.06;4365043;32;20352;-59
2022/01/08 02:20:46;;;;;;;1.87;1.77;;;;;;;2.02;83.92;94980.03;4349092;32;20381;-59
2022/01/08 02:23:12;;;;;;;1.60;1.50;;;;;;;1.83;84.46;94980.63;4362208;32;20277;-60
2022/01/08 02:25:37;;;;;;;1.40;1.40;;;;;;;1.74;84.47;94982.88;4373148;32;20203;-59
2022/01/08 02:28:06;;;;;;;1.43;1.43;;;;;;;1.57;84.70;94979.56;4365105;32;20213;-59
2022/01/08 02:30:32;;;;;;;1.73;1.63;;;;;;;1.43;85.01;94978.37;4366931;32;20196;-59
2022/01/08 02:32:58;;;;;;;1.60;1.50;;;;;;;1.23;85.78;94973.72;4348499;32;20328;-59
2022/01/08 02:35:24;;;;;;;1.70;1.60;;;;;;;1.13;86.46;94970.97;4367821;32;20185;-59
2022/01/08 02:37:51;;;;;;;1.50;1.40;;;;;;;1.08;86.75;94966.47;4355379;32;20197;-59
2022/01/08 02:40:18;;;;;;;1.83;1.42;;;;;;;0.88;86.89;94961.78;4356151;32;20294;-59
2022/01/08 02:43:00;;;;;;;1.67;1.58;;;;;;;0.98;87.36;94956.69;4370359;32;20181;-60
2022/01/08 02:45:29;;;;;;;1.67;1.58;;;;;;;0.74;87.83;94955.31;4361604;32;20238;-59
2022/01/08 02:47:56;;;;;;;1.80;1.70;;;;;;;0.62;88.40;94954.66;4373236;32;20176;-58
2022/01/08 02:50:24;;;;;;;1.75;1.65;;;;;;;0.62;88.42;94944.97;4351675;32;20178;-59
2022/01/08 02:52:51;;;;;;;1.40;1.40;;;;;;;0.54;88.71;94940.19;4347758;32;20287;-59
2022/01/08 02:55:20;;;;;;;1.52;1.42;;;;;;;0.43;89.12;94928.00;4351332;32;20185;-59
2022/01/08 02:57:46;;;;;;;1.60;1.50;;;;;;;0.45;89.03;94936.38;4359307;32;20231;-60
2022/01/08 03:00:16;;;;;;;1.70;1.60;;;;;;;0.35;89.55;94925.81;4373801;32;20219;-60
2022/01/08 03:02:47;;;;;;;2.03;1.80;;;;;;;0.24;89.89;94927.47;4358869;32;20218;-58
2022/01/08 03:05:13;;;;;;;1.60;1.50;;;;;;;0.45;89.44;94925.94;4351552;32;20272;-59
2022/01/08 03:07:40;;;;;;;1.83;1.73;;;;;;;0.53;88.95;94917.72;4375240;32;20195;-59
2022/01/08 03:10:11;;;;;;;2.05;1.70;;;;;;;0.44;89.06;94907.94;4366465;32;20239;-59
2022/01/08 03:12:38;;;;;;;1.83;1.73;;;;;;;0.31;89.21;94909.84;4348966;32;20191;-60
2022/01/08 03:15:05;;;;;;;1.73;1.62;;;;;;;0.36;89.28;94905.75;4372530;32;20210;-59
2022/01/08 03:17:30;;;;;;;1.75;1.65;;;;;;;0.20;89.57;94896.91;4353793;32;20211;-58
2022/01/08 03:20:02;;;;;;;1.73;1.63;;;;;;;0.16;90.59;94896.59;4360604;32;20169;-59
2022/01/08 03:22:29;;;;;;;1.50;1.40;;;;;;;0.47;89.35;94884.75;4375240;32;20177;-59
2022/01/08 03:24:54;;;;;;;1.92;1.83;;;;;;;0.71;87.94;94884.53;4352899;32;20186;-59
2022/01/08 03:27:19;;;;;;;1.50;1.40;;;;;;;0.92;86.63;94876.72;4365516;32;20218;-59
2022/01/08 03:29:46;;;;;;;1.57;1.50;;;;;;;0.97;86.04;94876.00;4339795;32;20288;-60
2022/01/08 03:32:13;;;;;;;1.87;1.77;;;;;;;1.05;85.72;94875.53;4353739;32;20183;-59
2022/01/08 03:34:38;;;;;;;1.80;1.70;;;;;;;1.20;85.23;94869.72;4348388;32;20189;-60
2022/01/08 03:37:04;;;;;;;1.77;1.67;;;;;;;0.98;85.10;94867.12;4360684;32;20256;-59
2022/01/08 03:39:29;;;;;;;1.70;1.60;;;;;;;0.85;85.68;94864.87;4362292;32;20192;-59
2022/01/08 03:41:54;;;;;;;1.60;1.50;;;;;;;0.73;86.21;94866.81;4374421;32;20201;-59
2022/01/08 03:44:20;;;;;;;1.50;1.40;;;;;;;1.04;85.42;94859.09;4354120;32;20184;-59
2022/01/08 03:46:45;;;;;;;1.70;1.60;;;;;;;1.05;84.98;94854.66;4343369;32;20228;-59
2022/01/08 03:49:22;;;;;;;1.60;1.50;;;;;;;1.18;83.71;94866.56;4353814;32;20188;-59
2022/01/08 03:51:48;;;;;;;1.50;1.50;;;;;;;1.10;83.53;94857.31;4359944;32;20192;-59
2022/01/08 03:54:13;;;;;;;3.33;1.27;;;;;;;1.04;84.54;94847.84;4353519;32;20205;-60
2022/01/08 03:56:39;;;;;;;1.37;1.37;;;;;;;0.98;84.52;94838.41;4356161;32;20184;-59
2022/01/08 03:59:04;;;;;;;1.70;1.60;;;;;;;0.95;84.57;94839.69;4371802;32;20185;-59
2022/01/08 04:01:29;;;;;;;1.53;1.43;;;;;;;0.89;85.17;94845.06;4368002;32;20185;-59
2022/01/08 04:03:55;;;;;;;1.67;1.57;;;;;;;0.68;85.83;94839.63;4368332;32;20193;-59
2022/01/08 04:06:20;;;;;;;1.70;1.60;;;;;;;1.04;84.90;94837.41;4363472;32;20193;-59
2022/01/08 04:08:47;;;;;;;1.40;1.30;;;;;;;1.20;84.16;94827.91;4356724;32;20224;-59
2022/01/08 04:11:12;;;;;;;1.40;1.30;;;;;;;1.26;83.81;94822.47;4374900;32;20300;-59
2022/01/08 04:13:40;;;;;;;2.27;1.30;;;;;;;0.87;84.06;94826.25;4349656;32;20288;-60
2022/01/08 04:16:09;;;;;;;1.23;1.12;;;;;;;0.59;85.29;94819.44;4349611;32;20266;-59
2022/01/08 04:18:35;;;;;;;1.00;1.00;;;;;;;0.48;86.27;94818.50;4358312;32;20251;-59
2022/01/08 04:23:44;;;;;;;0.90;0.90;;;;;;;0.48;85.93;94812.50;4356021;32;20203;-59
2022/01/08 04:26:09;;;;;;;0.80;0.80;;;;;;;0.34;86.64;94807.66;4369243;32;20189;-59
2022/01/08 04:28:35;;;;;;;0.80;0.80;;;;;;;0.78;85.55;94806.84;4358421;32;20272;-59
2022/01/08 04:31:00;;;;;;;1.00;1.00;;;;;;;0.87;84.96;94795.72;4357800;32;20189;-59
2022/01/08 04:33:25;;;;;;;1.17;1.17;;;;;;;0.92;83.97;94793.16;4360215;32;20189;-60
2022/01/08 04:35:52;;;;;;;1.20;1.10;;;;;;;0.42;85.56;94796.00;4374601;32;20223;-60
2022/01/08 04:38:18;;;;;;;1.00;1.00;;;;;;;0.62;85.74;94793.63;4374361;32;20242;-59
2022/01/08 04:40:43;;;;;;;1.77;0.70;;;;;;;0.86;84.52;94781.09;4352202;32;20249;-59
2022/01/08 04:43:11;;;;;;;0.90;0.90;;;;;;;0.88;84.51;94788.69;4370291;32;20225;-59
2022/01/08 04:45:36;;;;;;;0.70;0.70;;;;;;;0.86;84.58;94780.31;4375368;32;20258;-59
2022/01/08 04:48:02;;;;;;;0.90;0.90;;;;;;;0.65;84.44;94774.88;4354232;32;20189;-59
2022/01/08 04:50:28;;;;;;;0.80;0.80;;;;;;;0.29;86.01;94788.53;4370700;32;20228;-59
2022/01/08 04:52:55;;;;;;;0.95;0.95;;;;;;;0.59;85.81;94778.47;4369460;32;20184;-59
2022/01/08 04:55:21;;;;;;;0.75;0.75;;;;;;;0.49;86.27;94773.13;4355357;32;20233;-59
2022/01/08 04:57:47;;;;;;;1.10;1.10;;;;;;;0.60;85.68;94776.66;4359620;32;20274;-60
2022/01/08 05:00:13;;;;;;;0.80;0.80;;;;;;;0.77;85.55;94771.34;4360188;32;20189;-59
2022/01/08 05:02:38;;;;;;;0.75;0.75;;;;;;;0.82;85.28;94779.25;4347941;32;20186;-59
2022/01/08 05:05:04;;;;;;;0.80;0.80;;;;;;;1.06;84.51;94782.31;4358903;32;20184;-59
2022/01/08 05:07:31;;;;;;;0.97;0.97;;;;;;;0.89;84.55;94787.66;4369805;32;20193;-59
2022/01/08 05:09:56;;;;;;;0.65;0.65;;;;;;;1.10;83.67;94817.34;4370411;32;20181;-59
2022/01/08 05:12:22;;;;;;;1.00;0.70;;;;;;;1.26;83.41;94811.25;4362255;32;20251;-59
2022/01/08 05:14:48;;;;;;;0.50;0.50;;;;;;;1.00;83.56;94821.47;4358317;32;20228;-59
2022/01/08 05:17:14;;;;;;;0.60;0.50;;;;;;;1.24;83.18;94861.16;4360337;32;20196;-59
2022/01/08 05:19:47;;;;;;;0.50;0.50;;;;;;;1.13;83.99;94862.06;4356750;32;20203;-58
2022/01/08 05:22:23;;;;;;;0.77;0.77;;;;;;;0.78;85.30;94853.84;4369040;32;20292;-59
2022/01/08 05:24:48;;;;;;;0.68;0.68;;;;;;;0.85;85.33;94855.22;4366275;32;20271;-59
2022/01/08 05:27:17;;;;;;;0.70;0.70;;;;;;;0.98;85.22;94846.22;4358436;32;20189;-58
2022/01/08 05:29:43;;;;;;;0.50;0.50;;;;;;;1.06;85.38;94829.31;4369454;32;20212;-59
2022/01/08 05:32:09;;;;;;;0.60;0.60;;;;;;;1.16;85.02;94824.22;4361841;32;20189;-59
2022/01/08 05:34:35;;;;;;;0.77;0.70;;;;;;;1.37;84.77;94818.94;4345319;32;20200;-59
2022/01/08 05:37:02;;;;;;;0.80;0.80;;;;;;;1.53;84.01;94819.06;4344901;32;20213;-59
2022/01/08 05:39:27;;;;;;;0.90;0.90;;;;;;;1.60;83.67;94815.22;4340655;32;20195;-59
2022/01/08 05:41:52;;;;;;;0.40;0.40;;;;;;;1.55;83.88;94828.22;4342453;32;20182;-59
2022/01/08 05:44:18;;;;;;;1.53;0.70;;;;;;;1.55;83.88;94822.22;4342857;32;20288;-59
2022/01/08 05:46:45;;;;;;;0.80;0.80;;;;;;;1.70;83.52;94824.94;4346589;32;20234;-59
2022/01/08 05:49:12;;;;;;;0.60;0.60;;;;;;;1.81;82.86;94813.53;4343052;32;20181;-60
2022/01/08 05:51:37;;;;;;;0.70;0.60;;;;;;;1.83;82.28;94811.47;4348197;32;20286;-59
2022/01/08 05:54:03;;;;;;;0.50;0.50;;;;;;;1.81;82.39;94820.59;4348257;32;20197;-59
2022/01/08 05:56:28;;;;;;;0.70;0.70;;;;;;;1.86;81.94;94825.87;4342400;32;20200;-60
2022/01/08 05:58:53;;;;;;;0.60;0.60;;;;;;;1.40;82.85;94824.72;4344151;32;20216;-60
2022/01/08 06:01:18;;;;;;;1.13;0.80;;;;;;;1.56;83.14;94823.78;4355315;32;20223;-59
2022/01/08 06:03:44;;;;;;;0.43;0.43;;;;;;;1.64;82.42;94831.19;4361433;32;20213;-60
2022/01/08 06:06:09;;;;;;;0.57;0.57;;;;;;;1.69;82.84;94833.81;4355125;32;20224;-59
2022/01/08 06:08:34;;;;;;;0.60;0.60;;;;;;;1.67;82.90;94841.13;4358145;32;20193;-59
2022/01/08 06:11:00;;;;;;;2.47;0.53;;;;;;;1.73;83.12;94846.16;4339922;32;20208;-59
2022/01/08 06:13:25;;;;;;;0.30;0.30;;;;;;;1.59;84.19;94838.97;4345359;32;20256;-59
2022/01/08 06:15:50;;;;;;;0.50;0.50;;;;;;;1.70;85.38;94835.41;4360137;32;20224;-59
2022/01/08 06:18:16;;;;;;;1.07;0.50;;;;;;;2.00;84.85;94825.16;4360580;32;20229;-59
2022/01/08 06:20:42;;;;;;;0.50;0.50;;;;;;;2.08;84.54;94825.75;4333549;32;20193;-59
2022/01/08 06:23:07;;;;;;;0.50;0.50;;;;;;;2.00;85.06;94809.47;4342561;32;20236;-60
2022/01/08 06:25:34;;;;;;;0.43;0.43;;;;;;;2.03;85.25;94806.38;4350527;32;20198;-59
2022/01/08 06:27:59;;;;;;;0.63;0.60;;;;;;;2.04;84.91;94815.78;4359458;32;20209;-61
2022/01/08 06:30:24;;;;;;;0.60;0.60;;;;;;;2.20;84.70;94815.88;4357176;32;20281;-59
2022/01/08 06:32:50;;;;;;;0.63;0.40;;;;;;;2.22;84.25;94816.41;4366132;32;20219;-59
2022/01/08 06:35:15;;;;;;;0.60;0.50;;;;;;;2.14;84.02;94809.03;4351824;32;20217;-59
2022/01/08 06:37:40;;;;;;;1.37;0.80;;;;;;;2.20;83.16;94808.81;4366333;32;20197;-59
2022/01/08 06:40:08;;;;;;;0.40;0.40;;;;;;;2.04;83.55;94815.78;4348712;32;20255;-60
2022/01/08 06:42:33;;;;;;;0.40;0.40;;;;;;;1.94;83.96;94820.94;4356977;32;20268;-58
2022/01/08 06:44:59;;;;;;;0.37;0.37;;;;;;;2.00;84.03;94817.31;4364200;32;20276;-60
2022/01/08 06:47:24;;;;;;;0.40;0.40;;;;;;;2.15;83.17;94815.84;4358190;32;20204;-60
2022/01/08 06:49:49;;;;;;;0.47;0.40;;;;;;;2.22;82.58;94809.34;4362313;32;20260;-59
2022/01/08 06:52:15;;;;;;;0.30;0.30;;;;;;;2.18;82.55;94816.13;4353725;32;20193;-59
2022/01/08 06:54:40;;;;;;;0.50;0.40;;;;;;;1.92;83.49;94811.78;4368662;32;20207;-59
2022/01/08 06:57:05;;;;;;;0.37;0.37;;;;;;;2.22;82.94;94800.72;4362216;32;20285;-59
2022/01/08 06:59:31;;;;;;;0.77;0.30;;;;;;;2.37;81.89;94800.78;4374763;32;20264;-59
2022/01/08 07:01:56;;;;;;;0.40;0.40;;;;;;;2.20;82.11;94808.81;4356245;32;20194;-59
2022/01/08 07:04:21;;;;;;;0.20;0.20;;;;;;;2.20;81.63;94808.03;4372677;32;20196;-59
2022/01/08 07:06:46;;;;;;;0.27;0.27;;;;;;;2.27;80.97;94809.38;4361837;32;20240;-59
2022/01/08 07:09:12;;;;;;;0.30;0.30;;;;;;;2.45;80.51;94816.00;4358913;32;20197;-59
2022/01/08 07:11:37;;;;;;;0.67;0.50;;;;;;;2.56;79.58;94822.06;4360693;32;20192;-59
2022/01/08 07:14:02;;;;;;;0.30;0.30;;;;;;;2.46;79.01;94822.81;4357379;32;20193;-59
2022/01/08 07:16:28;;;;;;;0.20;0.20;;;;;;;2.51;79.28;94830.69;4352095;32;20267;-59
2022/01/08 07:18:53;;;;;;;0.30;0.30;;;;;;;2.66;78.28;94828.16;4363251;32;20189;-59
2022/01/08 07:21:18;;;;;;;0.23;0.23;;;;;;;2.80;77.70;94832.91;4341224;32;20311;-59
2022/01/08 07:23:44;;;;;;;0.50;0.50;;;;;;;2.69;77.69;94839.94;4341168;32;20266;-59
2022/01/08 07:26:09;;;;;;;0.37;0.37;;;;;;;2.53;78.26;94844.31;4355350;32;20287;-59
2022/01/08 07:28:34;;;;;;;0.40;0.40;;;;;;;2.69;78.31;94845.19;4353831;32;20207;-59
2022/01/08 07:31:00;;;;;;;0.30;0.30;;;;;;;2.55;78.64;94855.31;4362687;32;20192;-59
2022/01/08 07:33:25;;;;;;;0.33;0.33;;;;;;;2.61;78.52;94856.91;4360739;32;20203;-60
2022/01/08 07:35:51;;;;;;;0.30;0.30;;;;;;;2.58;79.40;94867.91;4351363;32;20215;-59
2022/01/08 07:38:16;;;;;;;0.30;0.30;;;;;;;2.54;80.38;94856.34;4357164;32;20274;-59
2022/01/08 07:40:41;;;;;;;0.50;0.50;;;;;;;2.49;82.29;94850.31;4344267;32;20207;-59
2022/01/08 07:43:07;;;;;;;0.20;0.20;;;;;;;2.43;84.13;94852.12;4357211;32;20200;-59
2022/01/08 07:45:32;;;;;;;0.30;0.30;;;;;;;2.33;85.52;94859.91;4357627;32;20204;-59
2022/01/08 07:47:57;;;;;;;0.30;0.30;;;;;;;2.45;86.25;94863.13;4338354;32;20205;-59
2022/01/08 07:50:23;;;;;;;0.30;0.30;;;;;;;2.23;88.19;94865.88;4350298;32;20225;-60
2022/01/08 07:52:48;;;;;;;0.30;0.30;;;;;;;2.31;88.52;94862.75;4355484;32;20326;-59
2022/01/08 07:55:14;;;;;;;0.40;0.37;;;;;;;2.25;89.06;94873.47;4348005;32;20231;-59
2022/01/08 07:57:39;;;;;;;0.63;0.30;;;;;;;2.25;89.39;94861.19;4331392;32;20201;-60
2022/01/08 08:00:06;;;;;;;0.30;0.30;;;;;;;2.15;90.29;94866.34;4341213;32;20178;-59
2022/01/08 08:02:31;;;;;;;0.20;0.20;;;;;;;2.22;90.79;94873.97;4352043;32;20200;-60
2022/01/08 08:04:56;;;;;;;0.20;0.20;;;;;;;2.10;91.53;94874.13;4342700;32;20241;-59
2022/01/08 08:07:29;;;;;;;0.20;0.20;;;;;;;2.18;92.42;94865.03;4343045;32;20205;-59
2022/01/08 08:09:55;;;;;;;0.27;0.27;;;;;;;2.26;92.02;94869.81;4358431;32;20235;-59
2022/01/08 08:12:22;;;;;;;0.20;0.20;;;;;;;2.25;92.18;94873.47;4350899;32;20293;-59
2022/01/08 08:14:47;;;;;;;3.40;0.27;;;;;;;2.27;92.29;94874.81;4353222;32;20243;-58
2022/01/08 08:17:12;;;;;;;0.23;0.20;;;;;;;2.24;92.92;94880.53;4345593;32;20270;-59
2022/01/08 08:19:38;;;;;;;0.60;0.60;;;;;;;2.15;93.21;94879.41;4350977;32;20243;-59
2022/01/08 08:22:03;;;;;;;0.77;0.50;;;;;;;2.10;93.44;94875.97;4354945;32;20209;-59
2022/01/08 08:24:28;;;;;;;0.50;0.40;;;;;;;2.16;93.33;94882.81;4370954;32;20193;-65
2022/01/08 08:26:54;;;;;;;2.30;0.40;;;;;;;2.14;93.70;94875.22;4364511;32;20260;-59
2022/01/08 08:29:20;;;;;;;0.97;0.40;;;;;;;2.28;93.46;94886.06;4358779;32;20218;-59
2022/01/08 08:31:45;;;;;;;0.73;0.20;;;;;;;2.23;93.01;94892.03;4347480;32;20252;-59
2022/01/08 08:34:11;;;;;;;0.30;0.30;;;;;;;2.42;92.16;94892.41;4364649;32;20301;-59
2022/01/08 08:36:36;;;;;;;0.30;0.30;;;;;;;2.59;91.39;94885.19;4342553;32;20228;-58
2022/01/08 08:39:02;;;;;;;0.37;0.37;;;;;;;2.70;90.31;94896.50;4334524;32;20215;-59
2022/01/08 08:41:27;;;;;;;0.60;0.40;;;;;;;2.74;89.80;94895.72;4337171;32;20177;-59
2022/01/08 08:43:53;;;;;;;0.37;0.30;;;;;;;2.83;88.82;94897.88;4361561;32;20406;-59
2022/01/08 08:46:18;;;;;;;0.40;0.20;;;;;;;2.82;88.90;94897.09;4329095;32;20292;-59
2022/01/08 08:48:44;;;;;;;0.40;0.40;;;;;;;2.81;88.52;94898.12;4346499;32;20280;-58
2022/01/08 08:51:10;;;;;;;0.30;0.30;;;;;;;2.70;89.20;94910.37;4346379;32;20197;-59
2022/01/08 08:53:35;;;;;;;0.37;0.30;;;;;;;2.90;89.32;94907.09;4348288;32;20343;-59
2022/01/08 08:56:01;;;;;;;0.20;0.20;;;;;;;2.89;89.75;94916.00;4350551;32;20206;-59
2022/01/08 08:58:31;;;;;;;0.40;0.33;;;;;;;2.75;90.78;94915.63;4358725;32;20200;-59
2022/01/08 09:00:57;;;;;;;1.07;0.30;;;;;;;2.69;91.52;94921.91;4355021;32;20286;-59
2022/01/08 09:03:22;;;;;;;0.30;0.30;;;;;;;2.73;91.56;94928.19;4356301;32;20320;-59
2022/01/08 09:05:47;;;;;;;0.40;0.30;;;;;;;2.68;91.69;94925.56;4355986;32;20259;-59
2022/01/08 09:08:13;;;;;;;0.30;0.30;;;;;;;2.82;90.96;94922.50;4352380;32;20197;-59
2022/01/08 09:10:38;;;;;;;0.63;0.30;;;;;;;2.75;89.79;94925.31;4327115;32;20216;-59
2022/01/08 09:13:03;;;;;;;1.07;0.40;;;;;;;2.80;89.28;94937.66;4342943;32;20258;-59
2022/01/08 09:15:29;;;;;;;0.30;0.30;;;;;;;2.71;90.42;94943.38;4343239;32;20189;-64
2022/01/08 09:17:57;;;;;;;0.40;0.40;;;;;;;2.73;90.84;94954.38;4343784;32;20245;-60
2022/01/08 09:20:23;;;;;;;0.40;0.40;;;;;;;2.76;90.68;94964.34;4338139;32;20185;-59
2022/01/08 09:22:48;;;;;;;0.30;0.30;;;;;;;2.75;90.10;94962.78;4336864;32;20322;-59
2022/01/08 09:25:15;;;;;;;3.10;0.33;;;;;;;2.60;90.33;94972.38;4336480;32;20197;-59
2022/01/08 09:27:41;;;;;;;1.27;0.40;;;;;;;2.54;89.21;94974.16;4330345;32;20199;-59
2022/01/08 09:30:07;;;;;;;0.30;0.20;;;;;;;2.71;88.58;95006.22;4343074;32;20338;-59
2022/01/08 09:32:33;;;;;;;0.30;0.30;;;;;;;2.74;87.17;94981.34;4338038;32;20297;-60
2022/01/08 09:34:58;;;;;;;0.57;0.50;;;;;;;2.79;87.30;94988.47;4347872;32;20212;-58
2022/01/08 09:37:24;;;;;;;3.30;0.73;;;;;;;2.76;86.30;94993.16;4341360;32;20193;-59
2022/01/08 09:39:49;;;;;;;0.20;0.20;;;;;;;2.76;85.76;94990.53;4337050;32;20197;-59
2022/01/08 09:42:15;;;;;;;0.50;0.50;;;;;;;2.81;85.13;95002.09;4338044;32;20249;-59
2022/01/08 09:44:44;;;;;;;1.40;0.60;;;;;;;2.80;84.75;95005.75;4341667;32;20201;-59
2022/01/08 09:47:13;;;;;;;0.20;0.20;;;;;;;2.69;85.13;95010.16;4335039;33;20189;-58
2022/01/08 09:49:39;;;;;;;3.70;0.50;;;;;;;2.71;84.50;95018.50;4345027;32;20309;-59
2022/01/08 09:52:05;;;;;;;0.20;0.20;;;;;;;2.68;84.72;95017.22;4345405;32;20349;-59
2022/01/08 09:54:31;;;;;;;0.77;0.30;;;;;;;2.85;84.65;95030.16;4346118;32;20297;-60
2022/01/08 09:56:56;;;;;;;0.63;0.40;;;;;;;2.71;84.09;95035.00;4350384;32;20192;-59
2022/01/08 09:59:21;;;;;;;0.20;0.20;;;;;;;2.89;83.24;95035.69;4341809;32;20319;-59
2022/01/08 10:02:01;;;;;;;0.20;0.20;;;;;;;2.73;82.82;95048.66;4354345;32;20205;-59
2022/01/08 10:04:34;;;;;;;0.40;0.30;;;;;;;2.71;82.72;95052.56;4360961;32;20196;-59
2022/01/08 10:07:23;;;;;;;0.30;0.30;;;;;;;2.67;82.78;95054.91;4354995;32;20287;-63
2022/01/08 10:10:10;;;;;;;0.40;0.40;;;;;;;2.60;82.14;95054.31;4345938;32;20296;-59
2022/01/08 10:12:52;;;;;;;0.40;0.37;;;;;;;2.59;82.91;95052.72;4347343;32;20320;-59
2022/01/08 10:18:26;;;;;;;1.90;0.60;;;;;;;2.75;80.92;95078.00;4363785;32;20348;-59
2022/01/08 10:20:52;;;;;;;0.50;0.50;;;;;;;2.61;82.12;95087.31;4347904;32;20308;-60
2022/01/08 10:23:27;;;;;;;0.40;0.40;;;;;;;2.74;81.00;95081.66;4348191;32;20286;-59
2022/01/08 10:26:10;;;;;;;0.93;0.50;;;;;;;2.67;81.55;95081.09;4341914;32;20273;-59
2022/01/08 10:28:44;;;;;;;0.50;0.50;;;;;;;2.72;81.40;95096.81;4357061;32;20315;-59
2022/01/08 10:31:27;;;;;;;0.40;0.40;;;;;;;2.66;80.98;95091.81;4345383;32;20288;-59
2022/01/08 10:34:00;;;;;;;0.43;0.43;;;;;;;2.70;81.99;95088.44;4348070;32;20371;-59
2022/01/08 10:36:26;;;;;;;0.50;0.50;;;;;;;2.63;81.08;95105.41;4335583;32;20316;-59
2022/01/08 10:38:55;;;;;;;0.67;0.63;;;;;;;2.69;80.96;95105.19;4339725;32;20222;-59
2022/01/08 10:41:22;;;;;;;0.70;0.67;;;;;;;2.69;80.96;95104.41;4347612;32;20305;-59
2022/01/08 10:43:47;;;;;;;0.60;0.60;;;;;;;2.80;80.79;95126.22;4362845;32;20325;-59
2022/01/08 10:46:15;;;;;;;0.60;0.60;;;;;;;2.79;80.95;95130.66;4352903;32;20307;-59
2022/01/08 10:48:50;;;;;;;1.83;1.73;;;;;;;2.95;80.90;95126.34;4341698;32;20204;-59
2022/01/08 10:51:25;;;;;;;0.73;0.60;;;;;;;2.89;79.61;95135.22;4345133;32;20289;-58
2022/01/08 10:54:01;;;;;;;0.80;0.80;;;;;;;2.85;79.93;95128.91;4351144;32;20368;-59
2022/01/08 10:56:26;;;;;;;0.73;0.60;;;;;;;2.84;79.89;95138.56;4346756;32;20278;-59
2022/01/08 10:58:59;;;;;;;1.03;0.83;;;;;;;2.89;79.58;95128.16;4343377;32;20273;-59
2022/01/08 11:01:43;;;;;;;0.73;0.73;;;;;;;2.95;79.46;95129.75;4356941;32;20296;-60
2022/01/08 11:04:10;;;;;;;0.77;0.60;;;;;;;3.02;79.03;95130.34;4340429;32;20284;-60
2022/01/08 11:06:53;;;;;;;0.60;0.60;;;;;;;2.91;79.69;95128.66;4346840;32;20311;-59
2022/01/08 11:09:20;;;;;;;0.97;0.97;;;;;;;3.06;78.40;95133.25;4355108;32;20795;-59
2022/01/08 11:11:47;;;;;;;1.53;0.70;;;;;;;3.03;78.98;95145.03;4361850;32;20281;-58
2022/01/08 11:14:45;;;;;;;0.70;0.70;;;;;;;2.99;78.97;95137.91;4348875;32;20281;-59
2022/01/08 11:17:12;;;;;;;0.60;0.60;;;;;;;3.04;80.21;95137.97;4363973;32;20335;-59
2022/01/08 11:19:38;;;;;;;0.80;0.70;;;;;;;3.08;78.75;95146.91;4361160;32;20329;-59
2022/01/08 11:22:09;;;;;;;0.73;0.73;;;;;;;3.16;77.44;95143.00;4351267;32;20281;-59
2022/01/08 11:24:34;;;;;;;0.97;0.97;;;;;;;3.04;78.50;95149.22;4343603;32;20324;-59
2022/01/08 11:26:59;;;;;;;0.97;0.97;;;;;;;3.11;78.38;95149.03;4341656;32;20294;-59
2022/01/08 11:29:28;;;;;;;1.33;1.23;;;;;;;3.17;78.71;95155.88;4353891;32;20190;-59
2022/01/08 11:31:56;;;;;;;1.37;1.20;;;;;;;3.20;77.33;95159.81;4358292;32;20197;-60
2022/01/08 11:34:27;;;;;;;1.33;1.10;;;;;;;3.28;77.01;95156.75;4345344;32;20287;-59
2022/01/08 11:36:52;;;;;;;1.27;1.27;;;;;;;3.09;77.31;95149.28;4342143;32;20355;-59
2022/01/08 11:39:18;;;;;;;1.40;1.23;;;;;;;3.23;76.55;95152.25;4348832;32;20286;-59
2022/01/08 11:41:45;;;;;;;2.40;2.20;;;;;;;3.31;76.84;95153.63;4354099;32;20213;-58
2022/01/08 11:44:11;;;;;;;1.20;1.20;;;;;;;3.28;77.20;95162.78;4350311;32;20185;-59
2022/01/08 11:46:37;;;;;;;1.40;1.30;;;;;;;3.29;77.06;95153.87;4343387;32;20282;-59
2022/01/08 11:49:03;;;;;;;1.37;1.30;;;;;;;3.32;75.61;95156.00;4347291;32;20334;-59
2022/01/08 11:51:29;;;;;;;1.40;1.30;;;;;;;3.34;75.22;95153.87;4356302;32;20282;-60
2022/01/08 11:53:58;;;;;;;1.40;1.30;;;;;;;3.50;74.91;95148.78;4355488;32;20197;-59
2022/01/08 11:56:23;;;;;;;1.40;1.30;;;;;;;3.50;74.37;95141.69;4332635;32;20352;-60
2022/01/08 11:59:11;;;;;;;1.27;1.23;;;;;;;3.47;75.33;95154.50;4338439;32;20415;-60
2022/01/08 12:01:57;;;;;;;1.87;1.60;;;;;;;3.39;76.55;95155.75;4339148;32;20201;-59